PAEI METAR and TAF weather

Enter ICAO airport designator
Station Type Date Time Source
PAEI METAR 2020/03/28 07:56 UTC NOAA

PAEI 280756Z AUTO 03011KT 10SM CLR M16/M26 A2987 RMK AO2 SLP131 T11561259 $


Station Type Date Time Source
PAEI Decoded METAR 2020/03/28 07:56 UTC NOAA

Fairbanks, Eielson Air Force Base, AK, United States (PAEI) 64-39N 147-06W 167M
Mar 28, 2020 - 03:56 AM EDT / 2020.03.28 0756 UTC
Wind: from the NNE (030 degrees) at 13 MPH (11 KT):0
Visibility: 10 mile(s):0
Sky conditions: clear
Temperature: 3.9 F (-15.6 C)
Windchill: -13 F (-25 C):2
Dew Point: -14.6 F (-25.9 C)
Relative Humidity: 40%
Pressure (altimeter): 29.87 in. Hg (1011 hPa)
ob: PAEI 280756Z AUTO 03011KT 10SM CLR M16/M26 A2987 RMK AO2 SLP131 T11561259
cycle: 8

Station Type Date Time Source
PAEI TAF 2020/03/28 06:19 UTC NOAA

TAF PAEI 280600Z 2806/2912 06009KT 9999 SKC QNH2987INS
BECMG 2822/2823 07010G18KT 9999 SKC 510103 QNH2990INS
BECMG 2905/2906 05007KT 9999 SKC QNH2993INS TXM10/2823Z TNM25/2815Z

Example: see airport list